Burkmere, South Dakota
Current Conditions -  °F | °C
As of 7:39 AM on Sunday 21 Dec 2014 (Local Time) from KABR Reporting Station
Haze Haze  
Wind Chill: 20°   Ceiling: 200
Heat Index: 31°   Visibility: 1.5mi
Dew Point: 29°   Wind: 15mph
Humidity: 92%   Direction: 160°SSE
Pressure: 29.7"   Gusts: NA
Location:  45.0672°N, 99.0996°W
Report Text: KABR 211339Z AUTO 16013KT 1 1/2SM BR OVC002 M01/M02 A2970 RMK AO2 T10061017
Loading
Personal Weather Stations






























Interactive Weather Map New forecast layout! Learn more

10-Day Weather Forecast

Advertisements
Track Severe Weather on mobile